createdAt,value
2018-07-24T00:01:28.843Z,31.53
2018-07-24T00:03:57.055Z,32.43
2018-07-24T00:06:25.543Z,33.27
2018-07-24T00:08:53.807Z,34.87
2018-07-24T00:11:22.051Z,36.80
2018-07-24T00:13:50.260Z,37.90
2018-07-24T00:16:18.676Z,35.70
2018-07-24T00:18:46.636Z,38.03
2018-07-24T00:21:14.849Z,36.60
2018-07-24T00:23:43.095Z,36.10
2018-07-24T00:26:11.356Z,36.13
2018-07-24T00:28:39.575Z,35.77
2018-07-24T00:31:08.251Z,39.43
2018-07-24T00:33:36.471Z,35.93
2018-07-24T00:36:04.707Z,35.83
2018-07-24T00:38:32.943Z,36.93
2018-07-24T00:41:01.167Z,35.77
2018-07-24T00:43:29.364Z,36.83
2018-07-24T00:45:57.579Z,37.37
2018-07-24T00:48:25.779Z,38.57
2018-07-24T00:50:54.029Z,38.77
2018-07-24T00:53:22.384Z,35.70
2018-07-24T00:55:50.692Z,35.57
2018-07-24T00:58:18.720Z,34.30
2018-07-24T01:00:46.991Z,38.03
2018-07-24T01:03:15.263Z,35.90
2018-07-24T01:05:43.504Z,37.40
2018-07-24T01:08:11.701Z,38.07
2018-07-24T01:10:39.933Z,38.77
2018-07-24T01:13:08.288Z,38.73
2018-07-24T01:15:36.495Z,34.87
2018-07-24T01:18:04.472Z,33.03
2018-07-24T01:20:32.975Z,38.67
2018-07-24T01:23:01.770Z,42.90
2018-07-24T01:25:30.068Z,39.80
2018-07-24T01:27:58.611Z,40.67
2018-07-24T01:30:26.788Z,42.07
2018-07-24T01:32:55.017Z,45.33
2018-07-24T01:35:23.388Z,40.50
2018-07-24T01:37:51.644Z,37.60
2018-07-24T01:40:19.840Z,41.97
2018-07-24T01:42:48.039Z,42.50
2018-07-24T01:45:16.224Z,43.37
2018-07-24T01:47:44.448Z,46.73
2018-07-24T01:50:12.687Z,43.17
2018-07-24T01:52:40.919Z,41.13
2018-07-24T01:55:09.416Z,42.37
2018-07-24T01:57:37.664Z,43.37
2018-07-24T02:00:06.537Z,43.87
2018-07-24T02:02:34.740Z,40.57
2018-07-24T02:05:02.947Z,41.50
2018-07-24T02:07:31.189Z,40.93
2018-07-24T02:09:59.388Z,42.57
2018-07-24T02:12:27.588Z,43.37
2018-07-24T02:14:55.828Z,46.07
2018-07-24T02:17:24.039Z,47.67
2018-07-24T02:19:52.294Z,41.67
2018-07-24T02:22:20.513Z,46.60
2018-07-24T02:24:48.728Z,42.90
2018-07-24T02:27:16.994Z,43.77
2018-07-24T02:29:45.227Z,43.47
2018-07-24T02:32:13.476Z,46.90
2018-07-24T02:34:41.882Z,45.17
2018-07-24T02:37:10.417Z,46.93
2018-07-24T02:39:38.653Z,55.43
2018-07-24T02:42:06.891Z,51.70
2018-07-24T02:44:35.121Z,47.00
2018-07-24T02:47:03.315Z,46.17
2018-07-24T02:49:31.548Z,53.00
2018-07-24T02:51:59.782Z,41.80
2018-07-24T02:54:28.008Z,46.37
2018-07-24T02:56:56.195Z,44.40
2018-07-24T02:59:24.423Z,46.77
2018-07-24T03:01:52.636Z,41.13
2018-07-24T03:04:20.973Z,40.03
2018-07-24T03:06:49.201Z,45.03
2018-07-24T03:09:17.396Z,43.50
2018-07-24T03:11:45.620Z,44.73
2018-07-24T03:14:13.817Z,37.37
2018-07-24T03:16:42.053Z,38.27
2018-07-24T03:19:10.268Z,42.17
2018-07-24T03:21:38.468Z,42.50
2018-07-24T03:24:06.696Z,43.17
2018-07-24T03:26:34.904Z,39.73
2018-07-24T03:29:03.116Z,43.40
2018-07-24T03:31:31.568Z,43.90
2018-07-24T03:33:59.772Z,43.63
2018-07-24T03:36:28.038Z,41.27
2018-07-24T03:38:56.259Z,40.70
2018-07-24T03:41:24.480Z,45.03
2018-07-24T03:43:52.894Z,44.57
2018-07-24T03:46:21.103Z,45.50
2018-07-24T03:48:49.336Z,44.63
2018-07-24T03:51:17.544Z,43.57
2018-07-24T03:53:45.749Z,44.70
2018-07-24T03:56:14.002Z,46.07
2018-07-24T03:58:42.192Z,45.40
2018-07-24T04:01:10.388Z,46.17
2018-07-24T04:03:38.600Z,46.57
2018-07-24T04:06:06.675Z,45.37
2018-07-24T04:08:34.885Z,40.87
2018-07-24T04:11:03.136Z,51.87
2018-07-24T04:13:31.336Z,46.33
2018-07-24T04:15:59.570Z,45.03
2018-07-24T04:18:32.077Z,47.03
2018-07-24T04:21:00.308Z,45.17
2018-07-24T04:23:28.544Z,45.07
2018-07-24T04:25:56.836Z,47.80
2018-07-24T04:28:25.083Z,46.30
2018-07-24T04:30:53.325Z,45.10
2018-07-24T04:33:21.493Z,43.37
2018-07-24T04:35:49.836Z,44.90
2018-07-24T04:38:17.788Z,44.03
2018-07-24T04:40:46.209Z,41.77
2018-07-24T04:43:14.179Z,36.37
2018-07-24T04:45:42.870Z,39.80
2018-07-24T04:48:11.103Z,38.27
2018-07-24T04:50:39.338Z,35.77
2018-07-24T04:53:07.963Z,37.13
2018-07-24T04:55:36.161Z,37.00
2018-07-24T04:58:04.402Z,35.07
2018-07-24T05:00:33.039Z,34.20
2018-07-24T05:03:02.122Z,36.23
2018-07-24T05:05:30.374Z,36.50
2018-07-24T05:07:58.609Z,35.47
2018-07-24T05:10:26.814Z,35.20
2018-07-24T05:12:55.078Z,39.43
2018-07-24T05:15:23.296Z,38.53
2018-07-24T05:17:51.520Z,40.93
2018-07-24T05:20:19.743Z,38.90
2018-07-24T05:22:47.951Z,40.43
2018-07-24T05:25:16.188Z,40.37
2018-07-24T05:27:45.328Z,42.77
2018-07-24T05:30:13.548Z,40.20
2018-07-24T05:32:41.764Z,42.00
2018-07-24T05:35:10.016Z,40.83
2018-07-24T05:37:38.212Z,41.57
2018-07-24T05:40:06.577Z,43.70
2018-07-24T05:42:34.791Z,42.77
2018-07-24T05:45:03.072Z,44.20
2018-07-24T05:47:31.281Z,44.97
2018-07-24T05:49:59.548Z,45.07
2018-07-24T05:52:27.772Z,47.27
2018-07-24T05:54:55.974Z,49.63
2018-07-24T05:57:24.221Z,48.73
2018-07-24T05:59:52.436Z,50.60
2018-07-24T06:02:20.681Z,48.27
2018-07-24T06:04:49.060Z,50.30
2018-07-24T06:07:17.318Z,49.97
2018-07-24T06:09:45.497Z,44.63
2018-07-24T06:12:13.713Z,48.43
2018-07-24T06:14:41.962Z,49.73
2018-07-24T06:17:10.509Z,43.73
2018-07-24T06:19:38.732Z,46.47
2018-07-24T06:22:06.944Z,45.13
2018-07-24T06:24:35.640Z,45.60
2018-07-24T06:27:03.869Z,41.43
2018-07-24T06:29:32.092Z,44.17
2018-07-24T06:32:00.396Z,37.67
2018-07-24T06:34:28.617Z,41.53
2018-07-24T06:36:56.836Z,38.07
2018-07-24T06:39:25.068Z,36.37
2018-07-24T06:41:53.302Z,32.40
2018-07-24T06:44:21.581Z,31.17
2018-07-24T06:46:49.774Z,35.20
2018-07-24T06:49:18.068Z,32.50
2018-07-24T06:51:46.331Z,31.90
2018-07-24T06:54:14.503Z,33.13
2018-07-24T06:56:42.781Z,36.10
2018-07-24T06:59:10.925Z,35.77
2018-07-24T07:01:39.221Z,32.63
2018-07-24T07:04:07.437Z,31.03
2018-07-24T07:06:35.676Z,31.20
2018-07-24T07:09:06.494Z,28.60
2018-07-24T07:11:35.104Z,27.67
2018-07-24T07:14:04.417Z,26.57
2018-07-24T07:16:32.412Z,26.20
2018-07-24T07:19:00.632Z,24.93
2018-07-24T07:21:28.857Z,23.93
2018-07-24T07:23:57.093Z,21.90
2018-07-24T07:26:25.288Z,22.83
2018-07-24T07:28:53.521Z,21.70
2018-07-24T07:31:21.762Z,20.30
2018-07-24T07:33:49.983Z,21.13
2018-07-24T07:36:18.496Z,21.47
2018-07-24T07:38:46.712Z,22.20
2018-07-24T07:41:14.924Z,22.07
2018-07-24T07:43:44.194Z,19.77
2018-07-24T07:46:12.393Z,19.97
2018-07-24T07:48:40.623Z,22.77
2018-07-24T07:51:08.821Z,24.00
2018-07-24T07:53:37.041Z,24.80
2018-07-24T07:56:05.275Z,20.73
2018-07-24T07:58:33.524Z,21.20
2018-07-24T08:01:01.776Z,22.87
2018-07-24T08:03:29.971Z,30.07
2018-07-24T08:05:58.198Z,27.10
2018-07-24T08:08:26.420Z,33.30
2018-07-24T08:10:54.733Z,27.57
2018-07-24T08:13:22.939Z,23.60
2018-07-24T08:15:51.136Z,21.97
2018-07-24T08:18:19.118Z,25.93
2018-07-24T08:20:47.357Z,25.30
2018-07-24T08:23:15.568Z,28.03
2018-07-24T08:25:43.811Z,17.50
2018-07-24T08:28:12.082Z,18.57
2018-07-24T08:30:40.296Z,17.07
2018-07-24T08:33:08.521Z,14.20
2018-07-24T08:35:36.737Z,12.87
2018-07-24T08:38:05.150Z,14.27
2018-07-24T08:40:33.380Z,13.07
2018-07-24T08:43:01.610Z,11.73
2018-07-24T08:45:29.825Z,12.00
2018-07-24T08:47:58.103Z,12.50
2018-07-24T08:50:26.310Z,12.23
2018-07-24T08:52:54.613Z,14.87
2018-07-24T08:55:23.147Z,12.60
2018-07-24T08:57:50.998Z,11.33
2018-07-24T09:00:19.233Z,13.03
2018-07-24T09:02:47.432Z,9.53
2018-07-24T09:05:15.650Z,10.63
2018-07-24T09:07:43.886Z,11.27
2018-07-24T09:10:12.705Z,10.23
2018-07-24T09:12:42.509Z,10.27
2018-07-24T09:15:10.764Z,10.43
2018-07-24T09:17:38.968Z,9.53
2018-07-24T09:20:07.345Z,9.63
2018-07-24T09:22:35.434Z,10.30
2018-07-24T09:25:03.704Z,8.97
2018-07-24T09:27:31.995Z,9.70
2018-07-24T09:30:00.197Z,8.50
2018-07-24T09:32:28.480Z,9.40
2018-07-24T09:34:56.431Z,9.17
2018-07-24T09:37:24.653Z,9.73
2018-07-24T09:39:52.852Z,9.43
2018-07-24T09:42:21.089Z,8.07
2018-07-24T09:44:49.263Z,8.37
2018-07-24T09:47:17.509Z,8.37
2018-07-24T09:49:45.737Z,9.60
2018-07-24T09:52:13.942Z,8.10
2018-07-24T09:54:42.159Z,8.83
2018-07-24T09:57:10.386Z,9.40
2018-07-24T09:59:38.596Z,10.00
2018-07-24T10:02:07.720Z,9.53
2018-07-24T10:04:36.093Z,12.30
2018-07-24T10:07:04.304Z,12.43
2018-07-24T10:09:32.651Z,9.27
2018-07-24T10:12:00.868Z,8.40
2018-07-24T10:14:29.080Z,8.50
2018-07-24T10:16:57.063Z,9.20
2018-07-24T10:19:25.309Z,7.90
2018-07-24T10:21:53.556Z,7.93
2018-07-24T10:24:21.789Z,8.00
2018-07-24T10:26:49.977Z,9.03
2018-07-24T10:29:18.179Z,8.40
2018-07-24T10:31:46.417Z,10.70
2018-07-24T10:34:14.721Z,8.17
2018-07-24T10:36:43.693Z,8.17
2018-07-24T10:39:12.672Z,7.73
2018-07-24T10:41:41.309Z,7.97
2018-07-24T10:44:09.528Z,7.57
2018-07-24T10:46:38.456Z,8.73
2018-07-24T10:49:07.074Z,7.53
2018-07-24T10:51:35.350Z,8.73
2018-07-24T10:54:03.520Z,7.67
2018-07-24T10:56:32.121Z,7.90
2018-07-24T10:59:00.360Z,7.50
2018-07-24T11:01:28.555Z,7.87
2018-07-24T11:03:57.008Z,8.07
2018-07-24T11:06:25.212Z,8.00
2018-07-24T11:08:53.717Z,6.93
2018-07-24T11:11:21.913Z,6.20
2018-07-24T11:13:50.868Z,6.43
2018-07-24T11:16:19.128Z,6.63
2018-07-24T11:18:47.312Z,7.03
2018-07-24T11:21:15.532Z,8.73
2018-07-24T11:23:43.764Z,7.63
2018-07-24T11:26:11.981Z,8.05
2018-07-24T11:28:40.226Z,6.45
2018-07-24T11:31:09.198Z,6.72
2018-07-24T11:33:37.429Z,6.70
2018-07-24T11:36:05.727Z,6.28
2018-07-24T11:38:33.922Z,7.42
2018-07-24T11:41:02.243Z,9.87
2018-07-24T11:43:30.438Z,7.58
2018-07-24T11:45:58.732Z,6.20
2018-07-24T11:48:26.932Z,6.83
2018-07-24T11:50:55.164Z,6.15
2018-07-24T11:53:23.348Z,5.97
2018-07-24T11:55:51.544Z,6.05
2018-07-24T11:58:19.778Z,5.50
2018-07-24T12:00:48.002Z,5.75
2018-07-24T12:03:16.228Z,6.00
2018-07-24T12:05:44.477Z,5.67
2018-07-24T12:08:12.711Z,5.05
2018-07-24T12:10:40.901Z,5.62
2018-07-24T12:13:09.108Z,6.08
2018-07-24T12:15:37.308Z,5.53
2018-07-24T12:18:05.523Z,5.42
2018-07-24T12:20:33.736Z,5.87
2018-07-24T12:23:01.940Z,5.92
2018-07-24T12:25:29.916Z,5.67
2018-07-24T12:27:58.100Z,5.67
2018-07-24T12:30:26.315Z,6.30
2018-07-24T12:32:54.504Z,6.00
2018-07-24T12:35:22.729Z,5.10
2018-07-24T12:37:51.031Z,5.65
2018-07-24T12:40:19.262Z,6.33
2018-07-24T12:42:47.465Z,5.75
2018-07-24T12:45:15.757Z,6.22
2018-07-24T12:47:44.001Z,6.45
2018-07-24T12:50:12.219Z,6.03
2018-07-24T12:52:40.468Z,5.65
2018-07-24T12:55:08.672Z,5.78
2018-07-24T12:57:36.916Z,5.92
2018-07-24T13:00:05.234Z,6.37
2018-07-24T13:02:33.465Z,5.62
2018-07-24T13:05:01.688Z,6.30
2018-07-24T13:07:29.928Z,6.10
2018-07-24T13:09:57.922Z,6.10
2018-07-24T13:12:26.111Z,6.40
2018-07-24T13:14:54.328Z,6.35
2018-07-24T13:17:22.600Z,6.55
2018-07-24T13:19:50.861Z,6.08
2018-07-24T13:22:19.105Z,5.75
2018-07-24T13:24:47.348Z,5.90
2018-07-24T13:27:15.611Z,5.92
2018-07-24T13:29:43.836Z,5.95
2018-07-24T13:32:12.152Z,6.03
2018-07-24T13:34:40.355Z,6.08
2018-07-24T13:37:08.586Z,5.92
2018-07-24T13:39:36.804Z,6.08
2018-07-24T13:42:05.044Z,6.35
2018-07-24T13:44:33.267Z,6.30
2018-07-24T13:47:01.534Z,6.95
2018-07-24T13:49:29.760Z,5.12
2018-07-24T13:51:58.043Z,5.45
2018-07-24T13:54:26.339Z,5.30
2018-07-24T13:56:54.573Z,6.08
2018-07-24T13:59:22.815Z,5.00
2018-07-24T14:01:51.128Z,4.92
2018-07-24T14:04:19.331Z,4.78
2018-07-24T14:06:47.589Z,5.17
2018-07-24T14:09:15.796Z,5.25
2018-07-24T14:11:44.046Z,4.42
2018-07-24T14:14:12.275Z,5.22
2018-07-24T14:16:40.509Z,5.62
2018-07-24T14:19:08.753Z,4.35
2018-07-24T14:21:37.024Z,4.90
2018-07-24T14:24:05.217Z,5.97
2018-07-24T14:26:33.455Z,4.53
2018-07-24T14:29:01.790Z,4.80
2018-07-24T14:31:30.040Z,5.17
2018-07-24T14:33:58.290Z,4.58
2018-07-24T14:36:27.450Z,4.58
2018-07-24T14:38:55.668Z,4.35
2018-07-24T14:41:23.911Z,4.87
2018-07-24T14:43:52.124Z,4.45
2018-07-24T14:46:20.395Z,4.42
2018-07-24T14:48:48.604Z,4.40
2018-07-24T14:51:16.898Z,3.83
2018-07-24T14:53:45.946Z,4.33
2018-07-24T14:56:13.992Z,4.22
2018-07-24T14:58:42.265Z,3.95
2018-07-24T15:01:10.972Z,3.67
2018-07-24T15:03:39.204Z,5.92
2018-07-24T15:06:08.044Z,3.95
2018-07-24T15:08:36.378Z,3.80
2018-07-24T15:11:04.580Z,4.05
2018-07-24T15:13:32.801Z,3.62
2018-07-24T15:16:01.040Z,3.47
2018-07-24T15:18:29.268Z,4.90
2018-07-24T15:20:59.008Z,4.15
2018-07-24T15:23:27.208Z,3.98
2018-07-24T15:25:55.432Z,4.42
2018-07-24T15:28:24.003Z,3.83
2018-07-24T15:30:52.216Z,4.55
2018-07-24T15:33:20.434Z,3.70
2018-07-24T15:35:48.636Z,4.58
2018-07-24T15:38:16.861Z,3.75
2018-07-24T15:40:45.073Z,4.65
2018-07-24T15:43:13.464Z,4.12
2018-07-24T15:45:41.676Z,4.40
2018-07-24T15:48:09.912Z,4.22
2018-07-24T15:50:37.882Z,4.42
2018-07-24T15:53:06.536Z,4.70
2018-07-24T15:55:34.751Z,4.15
2018-07-24T15:58:03.041Z,4.10
2018-07-24T16:00:31.208Z,3.95
2018-07-24T16:02:59.571Z,4.90
2018-07-24T16:05:27.789Z,4.17
2018-07-24T16:07:56.016Z,3.92
2018-07-24T16:10:24.248Z,3.83
2018-07-24T16:12:52.812Z,4.10
2018-07-24T16:15:21.066Z,3.83
2018-07-24T16:17:49.288Z,5.30
2018-07-24T16:20:17.512Z,3.80
2018-07-24T16:22:45.720Z,4.28
2018-07-24T16:25:13.937Z,3.98
2018-07-24T16:27:42.153Z,4.03
2018-07-24T16:30:10.340Z,4.08
2018-07-24T16:32:38.558Z,4.85
2018-07-24T16:35:06.784Z,5.75
2018-07-24T16:37:34.984Z,5.58
2018-07-24T16:40:03.215Z,4.67
2018-07-24T16:42:31.480Z,4.35
2018-07-24T16:44:59.752Z,4.28
2018-07-24T16:47:28.113Z,3.85
2018-07-24T16:49:56.360Z,4.15
2018-07-24T16:52:24.634Z,3.98
2018-07-24T16:54:52.838Z,3.72
2018-07-24T16:57:21.076Z,4.30
2018-07-24T16:59:49.287Z,5.85
2018-07-24T17:02:17.515Z,4.22
2018-07-24T17:04:45.757Z,3.87
2018-07-24T17:07:13.971Z,4.30
2018-07-24T17:09:42.185Z,4.33
2018-07-24T17:12:10.408Z,3.98
2018-07-24T17:14:38.371Z,4.37
2018-07-24T17:17:06.589Z,3.75
2018-07-24T17:19:34.861Z,4.00
2018-07-24T17:22:02.870Z,4.17
2018-07-24T17:24:31.073Z,3.95
2018-07-24T17:26:59.297Z,4.00
2018-07-24T17:29:27.500Z,3.98
2018-07-24T17:31:55.542Z,4.28
2018-07-24T17:34:24.107Z,4.37
2018-07-24T17:36:52.324Z,4.37
2018-07-24T17:39:20.544Z,4.30
2018-07-24T17:41:48.832Z,3.60
2018-07-24T17:44:17.037Z,4.45
2018-07-24T17:46:45.239Z,3.77
2018-07-24T17:49:13.454Z,3.75
2018-07-24T17:51:41.655Z,3.83
2018-07-24T17:54:09.916Z,3.60
2018-07-24T17:56:38.152Z,3.62
2018-07-24T17:59:06.365Z,3.67
2018-07-24T18:01:34.588Z,3.87
2018-07-24T18:04:02.824Z,3.62
2018-07-24T18:06:31.006Z,3.95
2018-07-24T18:08:59.233Z,3.90
2018-07-24T18:11:27.436Z,3.60
2018-07-24T18:13:55.640Z,3.85
2018-07-24T18:16:23.871Z,4.83
2018-07-24T18:18:52.053Z,3.77
2018-07-24T18:21:20.366Z,3.98
2018-07-24T18:23:48.604Z,3.17
2018-07-24T18:26:16.800Z,3.80
2018-07-24T18:28:45.009Z,3.98
2018-07-24T18:31:13.244Z,3.98
2018-07-24T18:33:41.468Z,4.45
2018-07-24T18:36:09.737Z,4.15
2018-07-24T18:38:38.048Z,4.22
2018-07-24T18:41:06.425Z,4.05
2018-07-24T18:43:34.704Z,4.12
2018-07-24T18:46:03.096Z,4.33
2018-07-24T18:48:31.348Z,4.55
2018-07-24T18:50:59.540Z,5.50
2018-07-24T18:53:27.868Z,4.35
2018-07-24T18:55:55.769Z,4.92
2018-07-24T18:58:23.741Z,4.33
2018-07-24T19:00:51.937Z,4.60
2018-07-24T19:03:19.920Z,5.17
2018-07-24T19:05:48.128Z,5.30
2018-07-24T19:08:16.320Z,5.27
2018-07-24T19:10:44.535Z,5.13
2018-07-24T19:13:12.742Z,5.20
2018-07-24T19:15:40.960Z,5.27
2018-07-24T19:18:09.197Z,4.70
2018-07-24T19:20:37.403Z,6.23
2018-07-24T19:23:05.606Z,5.27
2018-07-24T19:25:33.911Z,6.70
2018-07-24T19:28:02.704Z,7.23
2018-07-24T19:30:31.049Z,8.70
2018-07-24T19:32:59.248Z,6.63
2018-07-24T19:35:27.476Z,5.43
2018-07-24T19:37:55.692Z,6.10
2018-07-24T19:40:24.137Z,7.57
2018-07-24T19:42:52.566Z,6.27
2018-07-24T19:45:20.784Z,6.63
2018-07-24T19:47:48.983Z,6.43
2018-07-24T19:50:17.321Z,6.17
2018-07-24T19:52:45.521Z,5.90
2018-07-24T19:55:13.821Z,6.10
2018-07-24T19:57:42.031Z,6.73
2018-07-24T20:00:10.853Z,6.20
2018-07-24T20:02:39.340Z,7.37
2018-07-24T20:05:07.576Z,6.37
2018-07-24T20:07:35.779Z,6.67
2018-07-24T20:10:04.387Z,7.53
2018-07-24T20:12:32.580Z,7.20
2018-07-24T20:15:00.807Z,7.73
2018-07-24T20:17:29.049Z,7.20
2018-07-24T20:19:57.284Z,8.00
2018-07-24T20:22:25.503Z,8.60
2018-07-24T20:24:53.743Z,8.20
2018-07-24T20:27:21.933Z,7.20
2018-07-24T20:29:50.181Z,10.03
2018-07-24T20:32:18.397Z,10.00
2018-07-24T20:34:46.596Z,9.37
2018-07-24T20:37:14.972Z,7.57
2018-07-24T20:39:43.192Z,10.40
2018-07-24T20:42:11.157Z,8.20
2018-07-24T20:44:39.468Z,11.17
2018-07-24T20:47:07.708Z,9.27
2018-07-24T20:49:35.955Z,10.00
2018-07-24T20:52:04.179Z,8.40
2018-07-24T20:54:32.451Z,9.60
2018-07-24T20:57:00.670Z,9.60
2018-07-24T20:59:28.849Z,8.67
2018-07-24T21:01:57.110Z,9.03
2018-07-24T21:04:25.348Z,8.80
2018-07-24T21:06:53.564Z,8.23
2018-07-24T21:09:21.816Z,9.47
2018-07-24T21:11:50.033Z,8.87
2018-07-24T21:14:18.329Z,8.97
2018-07-24T21:16:46.532Z,9.73
2018-07-24T21:19:14.760Z,9.67
2018-07-24T21:21:42.971Z,9.97
2018-07-24T21:24:10.968Z,10.63
2018-07-24T21:26:39.164Z,11.63
2018-07-24T21:29:07.404Z,10.23
2018-07-24T21:31:35.640Z,9.97
2018-07-24T21:34:03.851Z,11.63
2018-07-24T21:36:32.066Z,11.10
2018-07-24T21:39:00.300Z,10.63
2018-07-24T21:41:28.521Z,14.07
2018-07-24T21:43:56.752Z,11.77
2018-07-24T21:46:24.949Z,12.53
2018-07-24T21:48:53.178Z,11.13
2018-07-24T21:51:21.388Z,10.83
2018-07-24T21:53:49.624Z,11.17
2018-07-24T21:56:17.860Z,13.77
2018-07-24T21:58:46.060Z,11.90
2018-07-24T22:01:14.872Z,11.63
2018-07-24T22:03:43.348Z,12.90
2018-07-24T22:06:11.560Z,11.47
2018-07-24T22:08:39.804Z,11.03
2018-07-24T22:11:08.028Z,11.67
2018-07-24T22:13:36.476Z,13.17
2018-07-24T22:16:04.717Z,11.80
2018-07-24T22:18:32.932Z,11.97
2018-07-24T22:21:01.143Z,13.80
2018-07-24T22:23:29.355Z,13.57
2018-07-24T22:25:57.549Z,12.47
2018-07-24T22:28:25.522Z,12.80
2018-07-24T22:30:53.472Z,12.50
2018-07-24T22:33:21.788Z,12.80
2018-07-24T22:35:50.024Z,13.67
2018-07-24T22:38:18.300Z,15.60
2018-07-24T22:40:46.493Z,13.73
2018-07-24T22:43:14.708Z,13.17
2018-07-24T22:45:42.924Z,12.50
2018-07-24T22:48:11.165Z,13.53
2018-07-24T22:50:39.408Z,12.37
2018-07-24T22:53:07.670Z,14.70
2018-07-24T22:55:35.910Z,13.33
2018-07-24T22:58:04.132Z,15.37
2018-07-24T23:00:32.365Z,14.00
2018-07-24T23:03:00.561Z,13.50
2018-07-24T23:05:28.768Z,14.23
2018-07-24T23:07:56.967Z,13.33
2018-07-24T23:10:30.659Z,14.87
2018-07-24T23:12:58.859Z,16.90
2018-07-24T23:15:27.154Z,13.17
2018-07-24T23:17:55.304Z,16.67
2018-07-24T23:20:23.544Z,15.30
2018-07-24T23:22:51.744Z,15.23
2018-07-24T23:25:19.997Z,14.40
2018-07-24T23:27:48.212Z,15.20
2018-07-24T23:30:16.457Z,13.33
2018-07-24T23:32:44.847Z,12.67
2018-07-24T23:35:12.783Z,15.23
2018-07-24T23:37:41.032Z,15.43
2018-07-24T23:40:09.306Z,15.80
2018-07-24T23:42:37.489Z,16.03
2018-07-24T23:45:05.712Z,16.97
2018-07-24T23:47:33.945Z,17.23
2018-07-24T23:50:02.143Z,15.47
2018-07-24T23:52:30.381Z,16.93
2018-07-24T23:54:58.784Z,19.60
2018-07-24T23:57:27.109Z,17.47
2018-07-24T23:59:55.063Z,16.30
